Time,TemperatureF,DewpointF,PressureIn,WindDirection,WindDirectionDegrees,WindSpeedMPH,WindSpeedGustMPH,Humidity,HourlyPrecipIn,Conditions,Clouds,dailyrainin,SolarRadiationWatts/m^2,SoftwareType,DateUTC
2013-01-23 00:04:00,9.7,-10.9,29.98,NNW,328,12.0,12.0,38,0.00,,,0.00,0,Wunderground v.1.15,2013-01-23 05:04:00,
2013-01-23 00:34:00,8.7,-11.3,29.98,NNW,346,9.0,9.0,39,0.00,,,0.00,0,Wunderground v.1.15,2013-01-23 05:34:00,
2013-01-23 01:04:00,8.0,-10.4,29.99,WNW,298,6.0,23.0,42,0.00,,,0.00,0,Wunderground v.1.15,2013-01-23 06:04:00,
2013-01-23 01:34:00,7.4,-10.5,29.99,NNW,343,6.0,6.0,43,0.00,,,0.00,0,Wunderground v.1.15,2013-01-23 06:34:00,
2013-01-23 02:05:00,6.7,-10.6,30.00,NNW,337,7.0,18.0,44,0.00,,,0.00,0,Wunderground v.1.15,2013-01-23 07:05:00,
2013-01-23 02:34:00,6.2,-10.6,29.99,North,351,8.0,14.0,45,0.00,,,0.00,0,Wunderground v.1.15,2013-01-23 07:34:00,
2013-01-23 03:04:00,5.8,-11.0,29.99,NNW,336,7.0,19.0,45,0.00,,,0.00,0,Wunderground v.1.15,2013-01-23 08:04:00,
2013-01-23 03:34:00,5.1,-10.8,29.99,NW,305,7.0,7.0,47,0.00,,,0.00,0,Wunderground v.1.15,2013-01-23 08:34:00,
2013-01-23 04:05:00,4.2,-11.2,30.00,North,9,7.0,7.0,48,0.00,,,0.00,0,Wunderground v.1.15,2013-01-23 09:05:00,
2013-01-23 04:34:00,3.6,-11.7,30.00,North,5,6.0,6.0,48,0.00,,,0.00,0,Wunderground v.1.15,2013-01-23 09:34:00,
2013-01-23 05:04:00,3.2,-12.1,30.01,NNW,329,6.0,15.0,48,0.00,,,0.00,0,Wunderground v.1.15,2013-01-23 10:04:00,
2013-01-23 05:34:00,2.7,-12.6,30.01,NW,317,5.0,18.0,48,0.00,,,0.00,0,Wunderground v.1.15,2013-01-23 10:34:00,
2013-01-23 06:04:00,2.2,-13.0,30.02,North,357,6.0,6.0,48,0.00,,,0.00,0,Wunderground v.1.15,2013-01-23 11:04:00,
2013-01-23 06:34:00,1.8,-12.6,30.03,North,349,4.0,14.0,50,0.00,,,0.00,0,Wunderground v.1.15,2013-01-23 11:34:00,
2013-01-23 07:05:00,1.6,-12.0,30.03,NNW,336,6.0,13.0,52,0.00,,,0.00,5,Wunderground v.1.15,2013-01-23 12:05:00,
2013-01-23 07:34:00,1.7,-12.7,30.03,NW,326,6.0,6.0,50,0.00,,,0.00,35,Wunderground v.1.15,2013-01-23 12:34:00,
2013-01-23 08:04:00,2.0,-12.8,30.03,NNW,328,7.0,15.0,49,0.00,,,0.00,109,Wunderground v.1.15,2013-01-23 13:04:00,
2013-01-23 08:34:00,2.3,-12.9,30.04,North,359,6.0,18.0,48,0.00,,,0.00,199,Wunderground v.1.15,2013-01-23 13:34:00,
2013-01-23 09:05:00,2.6,-13.1,30.04,NW,313,9.0,9.0,47,0.00,,,0.00,283,Wunderground v.1.15,2013-01-23 14:05:00,
2013-01-23 09:34:00,2.3,-14.2,30.04,NNW,330,11.0,11.0,45,0.00,,,0.00,339,Wunderground v.1.15,2013-01-23 14:34:00,
2013-01-23 10:05:00,2.6,-14.0,30.04,NW,312,12.0,12.0,45,0.00,,,0.00,385,Wunderground v.1.15,2013-01-23 15:05:00,
2013-01-23 10:34:00,3.1,-13.1,30.03,NNW,335,9.0,28.0,46,0.00,,,0.00,418,Wunderground v.1.15,2013-01-23 15:34:00,
2013-01-23 11:05:00,3.4,-14.1,30.01,WNW,294,10.0,23.0,43,0.00,,,0.00,441,Wunderground v.1.15,2013-01-23 16:05:00,
2013-01-23 11:34:00,4.0,-13.6,29.99,WNW,288,11.0,27.0,43,0.00,,,0.00,448,Wunderground v.1.15,2013-01-23 16:34:00,
2013-01-23 12:05:00,4.3,-13.8,29.98,WNW,301,13.0,24.0,42,0.00,,,0.00,441,Wunderground v.1.15,2013-01-23 17:05:00,
2013-01-23 12:34:00,5.5,-12.7,29.98,WNW,284,10.0,10.0,42,0.00,,,0.00,422,Wunderground v.1.15,2013-01-23 17:34:00,
2013-01-23 13:05:00,5.8,-13.4,29.97,NNE,20,9.0,9.0,40,0.00,,,0.00,388,Wunderground v.1.15,2013-01-23 18:05:00,
2013-01-23 13:34:00,6.5,-12.7,29.98,WNW,288,8.0,20.0,40,0.00,,,0.00,313,Wunderground v.1.15,2013-01-23 18:34:00,
2013-01-23 14:05:00,7.0,-12.8,29.98,WNW,298,9.0,24.0,39,0.00,,,0.00,33,Wunderground v.1.15,2013-01-23 19:05:00,
2013-01-23 14:34:00,6.5,-13.8,29.98,North,357,10.0,10.0,38,0.00,,,0.00,30,Wunderground v.1.15,2013-01-23 19:34:00,
2013-01-23 15:05:00,7.1,-13.8,29.98,NNW,337,9.0,24.0,37,0.00,,,0.00,28,Wunderground v.1.15,2013-01-23 20:05:00,
2013-01-23 15:34:00,6.1,-15.8,29.98,NW,323,13.0,26.0,35,0.00,,,0.00,23,Wunderground v.1.15,2013-01-23 20:34:00,
2013-01-23 16:05:00,5.9,-14.8,29.98,NNE,23,10.0,25.0,37,0.00,,,0.00,16,Wunderground v.1.15,2013-01-23 21:05:00,
2013-01-23 16:34:00,5.2,-15.5,29.99,NW,317,11.0,11.0,37,0.00,,,0.00,0,Wunderground v.1.15,2013-01-23 21:34:00,
2013-01-23 17:05:00,4.7,-14.9,30.00,NW,326,9.0,9.0,39,0.00,,,0.00,0,Wunderground v.1.15,2013-01-23 22:05:00,
2013-01-23 17:34:00,4.5,-14.6,30.00,NW,320,9.0,16.0,40,0.00,,,0.00,0,Wunderground v.1.15,2013-01-23 22:34:00,
2013-01-23 18:04:00,4.1,-14.0,30.00,North,351,8.0,8.0,42,0.00,,,0.00,0,Wunderground v.1.15,2013-01-23 23:04:00,
2013-01-23 18:34:00,3.7,-13.9,30.01,NW,321,9.0,20.0,43,0.00,,,0.00,0,Wunderground v.1.15,2013-01-23 23:34:00,
2013-01-23 19:05:00,3.3,-14.2,30.02,NW,320,4.0,14.0,43,0.00,,,0.00,0,Wunderground v.1.15,2013-01-24 00:05:00,
2013-01-23 19:34:00,2.8,-14.7,30.01,NW,313,9.0,18.0,43,0.00,,,0.00,0,Wunderground v.1.15,2013-01-24 00:34:00,
2013-01-23 20:34:00,2.0,-15.0,30.01,NW,319,10.0,22.0,44,0.00,,,0.00,0,Wunderground v.1.15,2013-01-24 01:34:00,
2013-01-23 21:04:00,1.8,-14.7,30.00,NW,322,11.0,11.0,45,0.00,,,0.00,0,Wunderground v.1.15,2013-01-24 02:04:00,
2013-01-23 21:34:00,1.5,-14.5,30.01,NW,322,9.0,22.0,46,0.00,,,0.00,0,Wunderground v.1.15,2013-01-24 02:34:00,
2013-01-23 22:05:00,1.1,-14.9,30.00,NNW,329,9.0,23.0,46,0.00,,,0.00,0,Wunderground v.1.15,2013-01-24 03:05:00,
2013-01-23 22:35:00,0.8,-14.8,30.01,NNW,334,7.0,7.0,47,0.00,,,0.00,0,Wunderground v.1.15,2013-01-24 03:35:00,
2013-01-23 23:05:00,0.4,-14.7,30.00,NNW,327,8.0,14.0,48,0.00,,,0.00,0,Wunderground v.1.15,2013-01-24 04:05:00,
2013-01-23 23:34:00,0.2,-14.5,30.01,NNE,20,5.0,22.0,49,0.00,,,0.00,0,Wunderground v.1.15,2013-01-24 04:34:00,